createdAt,value
2023-04-09T00:01:29.020Z,101460.28
2023-04-09T00:03:55.512Z,101453.06
2023-04-09T00:06:21.955Z,101448.59
2023-04-09T00:08:48.351Z,101456.63
2023-04-09T00:11:16.177Z,101449.44
2023-04-09T00:13:42.663Z,101447.66
2023-04-09T00:16:09.234Z,101454.72
2023-04-09T00:18:35.761Z,101451.13
2023-04-09T00:21:02.239Z,101456.47
2023-04-09T00:23:28.744Z,101461.78
2023-04-09T00:25:55.164Z,101461.78
2023-04-09T00:28:22.922Z,101463.53
2023-04-09T00:30:49.367Z,101453.66
2023-04-09T00:33:15.850Z,101450.91
2023-04-09T00:35:42.373Z,101456.19
2023-04-09T00:38:08.881Z,101452.59
2023-04-09T00:40:35.367Z,101459.63
2023-04-09T00:43:01.803Z,101456.94
2023-04-09T00:45:29.635Z,101466.72
2023-04-09T00:47:56.211Z,101459.47
2023-04-09T00:50:22.769Z,101462.13
2023-04-09T00:52:49.262Z,101463.91
2023-04-09T00:55:16.609Z,101459.38
2023-04-09T00:57:43.020Z,101463.78
2023-04-09T01:00:10.386Z,101466.47
2023-04-09T01:02:38.971Z,101462.00
2023-04-09T01:05:06.545Z,101465.56
2023-04-09T01:07:50.165Z,101471.75
2023-04-09T01:10:24.210Z,101467.25
2023-04-09T01:13:01.133Z,101471.66
2023-04-09T01:15:33.740Z,101466.19
2023-04-09T01:18:06.785Z,101460.75
2023-04-09T01:20:38.786Z,101466.94
2023-04-09T01:23:15.562Z,101474.97
2023-04-09T01:25:51.287Z,101475.81
2023-04-09T01:28:23.452Z,101467.78
2023-04-09T01:30:57.137Z,101464.22
2023-04-09T01:33:25.306Z,101468.69
2023-04-09T01:35:52.707Z,101470.44
2023-04-09T01:38:21.615Z,101467.72
2023-04-09T01:40:49.514Z,101457.00
2023-04-09T01:43:17.643Z,101463.25
2023-04-09T01:45:45.588Z,101458.75
2023-04-09T01:48:13.139Z,101464.09
2023-04-09T01:50:40.430Z,101465.75
2023-04-09T01:53:07.242Z,101462.13
2023-04-09T01:55:33.781Z,101461.13
2023-04-09T01:58:00.280Z,101461.09
2023-04-09T02:00:34.841Z,101458.44
2023-04-09T02:03:08.121Z,101459.28
2023-04-09T02:05:38.727Z,101455.66
2023-04-09T02:08:14.013Z,101467.19
2023-04-09T02:10:51.003Z,101466.25
2023-04-09T02:13:24.392Z,101474.19
2023-04-09T02:15:51.604Z,101464.31
2023-04-09T02:18:23.369Z,101467.81
2023-04-09T02:20:52.117Z,101463.34
2023-04-09T02:23:39.499Z,101465.94
2023-04-09T02:26:05.920Z,101468.59
2023-04-09T02:28:32.328Z,101471.19
2023-04-09T02:30:58.704Z,101471.25
2023-04-09T02:33:32.395Z,101479.25
2023-04-09T02:35:58.847Z,101476.66
2023-04-09T02:38:25.264Z,101475.81
2023-04-09T02:40:51.656Z,101468.56
2023-04-09T02:43:18.147Z,101472.94
2023-04-09T02:45:44.586Z,101472.00
2023-04-09T02:48:10.948Z,101479.09
2023-04-09T02:50:38.723Z,101478.25
2023-04-09T02:53:05.361Z,101475.59
2023-04-09T02:55:32.046Z,101479.16
2023-04-09T02:57:58.557Z,101482.66
2023-04-09T03:00:25.002Z,101483.53
2023-04-09T03:02:52.089Z,101480.91
2023-04-09T03:05:18.678Z,101482.75
2023-04-09T03:07:46.416Z,101481.81
2023-04-09T03:10:12.949Z,101476.50
2023-04-09T03:12:39.341Z,101476.53
2023-04-09T03:15:07.134Z,101477.44
2023-04-09T03:17:33.496Z,101473.84
2023-04-09T03:19:59.923Z,101470.31
2023-04-09T03:22:36.057Z,101468.59
2023-04-09T03:25:05.754Z,101475.66
2023-04-09T03:27:33.610Z,101475.59
2023-04-09T03:30:01.632Z,101477.34
2023-04-09T03:32:35.281Z,101477.34
2023-04-09T03:35:01.697Z,101475.56
2023-04-09T03:37:28.539Z,101475.47
2023-04-09T03:40:00.616Z,101472.84
2023-04-09T03:42:31.014Z,101465.91
2023-04-09T03:44:57.553Z,101473.91
2023-04-09T03:47:34.589Z,101468.59
2023-04-09T03:50:01.406Z,101471.28
2023-04-09T03:52:38.605Z,101477.34
2023-04-09T03:55:09.611Z,101468.41
2023-04-09T03:57:37.848Z,101466.66
2023-04-09T04:00:08.751Z,101473.75
2023-04-09T04:02:50.525Z,101471.06
2023-04-09T04:05:23.505Z,101472.81
2023-04-09T04:07:50.921Z,101475.56
2023-04-09T04:10:24.836Z,101477.41
2023-04-09T04:12:52.856Z,101477.44
2023-04-09T04:15:28.971Z,101476.59
2023-04-09T04:17:56.297Z,101478.34
2023-04-09T04:20:38.399Z,101470.25
2023-04-09T04:23:09.024Z,101473.75
2023-04-09T04:25:40.974Z,101487.09
2023-04-09T04:28:09.342Z,101491.47
2023-04-09T04:30:43.767Z,101490.53
2023-04-09T04:33:10.484Z,101490.47
2023-04-09T04:35:43.499Z,101489.63
2023-04-09T04:38:24.031Z,101483.38
2023-04-09T04:40:50.624Z,101487.88
2023-04-09T04:43:18.595Z,101487.91
2023-04-09T04:45:45.406Z,101494.16
2023-04-09T04:48:12.011Z,101492.19
2023-04-09T04:50:38.507Z,101500.22
2023-04-09T04:53:08.302Z,101496.75
2023-04-09T04:55:43.278Z,101495.88
2023-04-09T04:58:13.551Z,101498.59
2023-04-09T05:00:52.104Z,101495.94
2023-04-09T05:03:18.608Z,101494.28
2023-04-09T05:05:56.338Z,101496.97
2023-04-09T05:08:24.259Z,101508.66
2023-04-09T05:10:52.813Z,101498.91
2023-04-09T05:13:19.665Z,101505.19
2023-04-09T05:15:46.261Z,101509.72
2023-04-09T05:18:14.168Z,101505.31
2023-04-09T05:20:40.586Z,101503.31
2023-04-09T05:23:09.082Z,101502.88
2023-04-09T05:25:46.793Z,101496.72
2023-04-09T05:28:21.041Z,101495.34
2023-04-09T05:30:52.860Z,101491.91
2023-04-09T05:33:26.975Z,101491.94
2023-04-09T05:35:53.794Z,101483.88
2023-04-09T05:38:20.396Z,101494.53
2023-04-09T05:40:54.660Z,101490.97
2023-04-09T05:43:26.774Z,101492.69
2023-04-09T05:45:53.729Z,101491.72
2023-04-09T05:48:22.009Z,101506.09
2023-04-09T05:50:54.536Z,101515.25
2023-04-09T05:53:26.306Z,101513.47
2023-04-09T05:55:53.037Z,101508.97
2023-04-09T05:58:23.192Z,101518.88
2023-04-09T06:00:49.877Z,101508.09
2023-04-09T06:03:17.560Z,101512.56
2023-04-09T06:05:46.214Z,101518.88
2023-04-09T06:08:12.633Z,101513.50
2023-04-09T06:10:39.930Z,101517.06
2023-04-09T06:13:07.895Z,101513.50
2023-04-09T06:15:37.607Z,101509.00
2023-04-09T06:18:04.137Z,101514.38
2023-04-09T06:20:30.646Z,101509.88
2023-04-09T06:22:58.577Z,101508.09
2023-04-09T06:25:25.291Z,101502.69
2023-04-09T06:27:52.122Z,101503.50
2023-04-09T06:30:21.563Z,101508.81
2023-04-09T06:32:54.627Z,101507.00
2023-04-09T06:35:22.074Z,101502.47
2023-04-09T06:37:48.586Z,101504.31
2023-04-09T06:40:16.505Z,101506.94
2023-04-09T06:42:45.104Z,101510.44
2023-04-09T06:45:21.481Z,101502.16
2023-04-09T06:47:48.091Z,101503.09
2023-04-09T06:50:16.768Z,101510.19
2023-04-09T06:52:45.245Z,101506.72
2023-04-09T06:55:16.112Z,101511.22
2023-04-09T06:57:48.460Z,101512.09
2023-04-09T07:00:15.142Z,101531.66
2023-04-09T07:02:43.040Z,101524.56
2023-04-09T07:05:15.703Z,101526.91
2023-04-09T07:07:48.174Z,101534.13
2023-04-09T07:10:16.012Z,101530.31
2023-04-09T07:12:44.655Z,101535.84
2023-04-09T07:15:13.768Z,101543.75
2023-04-09T07:17:44.934Z,101544.66
2023-04-09T07:20:13.858Z,101540.75
2023-04-09T07:22:46.073Z,101540.75
2023-04-09T07:25:12.539Z,101549.28
2023-04-09T07:27:44.568Z,101550.09
2023-04-09T07:30:18.832Z,101543.81
2023-04-09T07:32:48.286Z,101551.84
2023-04-09T07:35:16.578Z,101546.47
2023-04-09T07:37:48.716Z,101545.38
2023-04-09T07:40:15.215Z,101546.91
2023-04-09T07:42:48.522Z,101539.53
2023-04-09T07:45:15.190Z,101541.16
2023-04-09T07:47:45.389Z,101536.66
2023-04-09T07:50:16.522Z,101536.78
2023-04-09T07:52:45.470Z,101543.53
2023-04-09T07:55:13.040Z,101540.28
2023-04-09T07:57:46.333Z,101539.59
2023-04-09T08:00:15.177Z,101531.81
2023-04-09T08:02:45.324Z,101543.97
2023-04-09T08:05:16.645Z,101541.75
2023-04-09T08:07:45.280Z,101547.22
2023-04-09T08:10:16.673Z,101538.44
2023-04-09T08:12:43.269Z,101546.66
2023-04-09T08:15:15.902Z,101536.00
2023-04-09T08:17:44.270Z,101532.44
2023-04-09T08:20:15.540Z,101530.59
2023-04-09T08:22:41.939Z,101548.28
2023-04-09T08:25:12.233Z,101543.53
2023-04-09T08:27:42.872Z,101544.88
2023-04-09T08:30:10.410Z,101550.38
2023-04-09T08:32:38.386Z,101546.13
2023-04-09T08:35:08.139Z,101547.94
2023-04-09T08:37:34.582Z,101541.28
2023-04-09T08:40:01.140Z,101541.44
2023-04-09T08:42:28.803Z,101543.63
2023-04-09T08:44:55.377Z,101538.31
2023-04-09T08:47:22.464Z,101549.38
2023-04-09T08:49:50.279Z,101550.75
2023-04-09T08:52:17.755Z,101538.09
2023-04-09T08:54:44.309Z,101530.91
2023-04-09T08:57:16.499Z,101531.53
2023-04-09T08:59:47.171Z,101530.75
2023-04-09T09:02:16.111Z,101526.91
2023-04-09T09:04:47.388Z,101532.63
2023-04-09T09:07:18.044Z,101523.72
2023-04-09T09:09:51.733Z,101527.69
2023-04-09T09:12:31.125Z,101510.78
2023-04-09T09:15:06.724Z,101523.63
2023-04-09T09:17:34.368Z,101517.81
2023-04-09T09:20:19.486Z,101506.00
2023-04-09T09:22:55.051Z,101504.78
2023-04-09T09:25:22.564Z,101510.88
2023-04-09T09:27:49.263Z,101500.00
2023-04-09T09:30:21.436Z,101500.47
2023-04-09T09:32:51.458Z,101498.03
2023-04-09T09:35:18.370Z,101494.47
2023-04-09T09:37:46.897Z,101489.91
2023-04-09T09:40:27.049Z,101492.16
2023-04-09T09:42:54.959Z,101499.34
2023-04-09T09:45:21.720Z,101502.09
2023-04-09T09:47:49.401Z,101493.06
2023-04-09T09:50:16.098Z,101484.19
2023-04-09T09:52:45.949Z,101496.31
2023-04-09T09:55:15.975Z,101493.66
2023-04-09T09:57:50.718Z,101485.34
2023-04-09T10:00:19.202Z,101478.78
2023-04-09T10:02:54.114Z,101490.56
2023-04-09T10:05:21.658Z,101486.75
2023-04-09T10:07:48.391Z,101490.91
2023-04-09T10:10:16.555Z,101481.19
2023-04-09T10:12:43.999Z,101481.34
2023-04-09T10:15:16.647Z,101485.44
2023-04-09T10:17:44.976Z,101471.81
2023-04-09T10:20:17.869Z,101468.16
2023-04-09T10:22:47.963Z,101468.03
2023-04-09T10:25:15.843Z,101466.56
2023-04-09T10:27:44.163Z,101476.91
2023-04-09T10:30:31.519Z,101466.50
2023-04-09T10:33:19.463Z,101459.75
2023-04-09T10:35:47.252Z,101467.88
2023-04-09T10:38:14.364Z,101472.00
2023-04-09T10:40:48.717Z,101466.53
2023-04-09T10:43:18.779Z,101465.41
2023-04-09T10:45:45.467Z,101461.38
2023-04-09T10:48:12.209Z,101461.97
2023-04-09T10:50:44.421Z,101460.69
2023-04-09T10:53:21.822Z,101454.66
2023-04-09T10:55:51.052Z,101452.22
2023-04-09T10:58:17.590Z,101454.16
2023-04-09T11:00:45.314Z,101453.06
2023-04-09T11:03:24.291Z,101445.84
2023-04-09T11:05:54.412Z,101442.44
2023-04-09T11:08:21.033Z,101444.44
2023-04-09T11:10:51.788Z,101434.38
2023-04-09T11:13:19.299Z,101434.03
2023-04-09T11:15:46.030Z,101432.97
2023-04-09T11:18:19.671Z,101423.28
2023-04-09T11:20:46.333Z,101425.13
2023-04-09T11:23:13.464Z,101430.28
2023-04-09T11:25:50.790Z,101421.16
2023-04-09T11:28:17.533Z,101417.75
2023-04-09T11:30:44.211Z,101428.91
2023-04-09T11:33:19.154Z,101420.66
2023-04-09T11:35:46.519Z,101422.97
2023-04-09T11:38:14.656Z,101425.47
2023-04-09T11:40:45.825Z,101420.72
2023-04-09T11:43:14.143Z,101418.34
2023-04-09T11:45:43.000Z,101419.53
2023-04-09T11:48:10.048Z,101420.94
2023-04-09T11:50:37.107Z,101429.75
2023-04-09T11:53:15.737Z,101422.25
2023-04-09T11:55:47.587Z,101419.25
2023-04-09T11:58:15.408Z,101412.94
2023-04-09T12:00:43.993Z,101413.72
2023-04-09T12:03:18.589Z,101409.19
2023-04-09T12:05:50.524Z,101404.31
2023-04-09T12:08:23.257Z,101411.22
2023-04-09T12:10:51.390Z,101416.00
2023-04-09T12:13:20.372Z,101406.84
2023-04-09T12:15:49.610Z,101415.31
2023-04-09T12:18:16.124Z,101406.97
2023-04-09T12:20:47.225Z,101405.47
2023-04-09T12:23:13.936Z,101414.34
2023-04-09T12:25:43.074Z,101413.19
2023-04-09T12:28:15.829Z,101407.38
2023-04-09T12:30:46.021Z,101404.19
2023-04-09T12:33:13.808Z,101403.03
2023-04-09T12:35:46.891Z,101401.03
2023-04-09T12:38:15.186Z,101395.63
2023-04-09T12:40:46.110Z,101398.25
2023-04-09T12:43:34.137Z,101387.41
2023-04-09T14:02:03.470Z,101322.81
2023-04-09T14:05:00.061Z,101323.75
2023-04-09T14:07:27.034Z,101328.66
2023-04-09T14:09:54.043Z,101323.03
2023-04-09T14:15:35.110Z,101326.81
2023-04-09T14:18:01.789Z,101326.69
2023-04-09T14:20:31.055Z,101324.06
2023-04-09T14:22:57.582Z,101316.84
2023-04-09T14:25:23.989Z,101316.31
2023-04-09T14:27:53.977Z,101316.50
2023-04-09T14:30:22.419Z,101315.16
2023-04-09T14:32:50.149Z,101321.00
2023-04-09T14:35:23.761Z,101310.09
2023-04-09T14:37:50.560Z,101311.91
2023-04-09T14:40:17.062Z,101306.22
2023-04-09T14:42:43.510Z,101306.25
2023-04-09T14:45:11.131Z,101304.22
2023-04-09T14:47:37.617Z,101303.25
2023-04-09T14:50:06.094Z,101298.13
2023-04-09T14:52:32.582Z,101305.44
2023-04-09T14:54:59.052Z,101298.47
2023-04-09T14:57:25.523Z,101291.06
2023-04-09T14:59:51.930Z,101291.34
2023-04-09T15:02:18.617Z,101296.09
2023-04-09T15:04:45.292Z,101288.56
2023-04-09T15:07:13.129Z,101289.56
2023-04-09T15:09:39.590Z,101294.84
2023-04-09T15:12:06.038Z,101285.75
2023-04-09T15:14:32.454Z,101289.81
2023-04-09T15:16:58.965Z,101281.31
2023-04-09T15:19:25.516Z,101278.16
2023-04-09T15:21:51.982Z,101276.06
2023-04-09T15:24:19.787Z,101279.63
2023-04-09T15:26:46.181Z,101279.84
2023-04-09T15:29:12.635Z,101273.56
2023-04-09T15:31:40.867Z,101280.41
2023-04-09T15:34:07.982Z,101280.19
2023-04-09T15:36:34.652Z,101285.03
2023-04-09T15:39:02.233Z,101283.31
2023-04-09T15:41:30.050Z,101283.31
2023-04-09T15:43:56.626Z,101288.31
2023-04-09T15:46:23.217Z,101287.88
2023-04-09T15:48:49.734Z,101286.31
2023-04-09T15:51:16.182Z,101286.63
2023-04-09T15:53:42.663Z,101293.13
2023-04-09T15:56:12.078Z,101292.66
2023-04-09T15:58:42.162Z,101295.69
2023-04-09T16:01:21.600Z,101298.59
2023-04-09T16:03:49.895Z,101295.13
2023-04-09T16:06:16.527Z,101296.88
2023-04-09T16:08:43.051Z,101302.25
2023-04-09T16:11:11.524Z,101297.59
2023-04-09T16:13:38.045Z,101299.09
2023-04-09T16:16:08.314Z,101292.34
2023-04-09T16:18:40.987Z,101297.03
2023-04-09T16:21:08.481Z,101299.66
2023-04-09T16:23:35.125Z,101298.00
2023-04-09T16:26:01.774Z,101291.03
2023-04-09T16:28:36.689Z,101306.75
2023-04-09T16:31:04.360Z,101298.31
2023-04-09T16:33:32.756Z,101291.53
2023-04-09T16:35:59.251Z,101304.88
2023-04-09T16:38:28.745Z,101295.13
2023-04-09T16:40:55.964Z,101302.47
2023-04-09T16:43:25.898Z,101300.34
2023-04-09T16:45:53.398Z,101294.00
2023-04-09T16:48:20.231Z,101296.66
2023-04-09T16:50:48.700Z,101293.22
2023-04-09T16:53:18.526Z,101288.97
2023-04-09T16:55:45.197Z,101289.03
2023-04-09T16:58:15.546Z,101288.31
2023-04-09T17:00:42.792Z,101292.13
2023-04-09T17:03:14.854Z,101293.50
2023-04-09T17:05:41.367Z,101290.13
2023-04-09T17:08:12.066Z,101298.69
2023-04-09T17:10:38.617Z,101288.94
2023-04-09T17:13:05.419Z,101292.94
2023-04-09T17:15:31.891Z,101293.44
2023-04-09T17:17:58.492Z,101298.31
2023-04-09T17:20:24.991Z,101301.44
2023-04-09T17:22:51.732Z,101300.94
2023-04-09T17:25:20.104Z,101293.16
2023-04-09T17:27:46.547Z,101301.75
2023-04-09T17:30:13.224Z,101298.63
2023-04-09T17:32:40.170Z,101306.13
2023-04-09T17:35:07.601Z,101297.38
2023-04-09T17:37:34.084Z,101295.91
2023-04-09T17:40:00.751Z,101303.31
2023-04-09T17:42:28.577Z,101301.78
2023-04-09T17:44:55.140Z,101305.72
2023-04-09T17:47:21.859Z,101306.00
2023-04-09T17:49:48.566Z,101297.34
2023-04-09T17:52:14.976Z,101305.72
2023-04-09T17:54:41.897Z,101310.41
2023-04-09T17:57:08.401Z,101313.13
2023-04-09T17:59:45.808Z,101302.47
2023-04-09T18:02:12.888Z,101301.88
2023-04-09T18:04:40.358Z,101313.00
2023-04-09T18:07:09.212Z,101306.13
2023-04-09T18:09:43.393Z,101309.84
2023-04-09T18:12:25.352Z,101309.22
2023-04-09T18:15:05.600Z,101303.09
2023-04-09T18:17:34.266Z,101297.72
2023-04-09T18:20:03.567Z,101321.41
2023-04-09T18:22:37.891Z,101318.88
2023-04-09T18:25:05.351Z,101321.78
2023-04-09T18:27:35.359Z,101322.78
2023-04-09T18:30:06.939Z,101320.25
2023-04-09T18:32:37.603Z,101327.69
2023-04-09T18:35:11.043Z,101319.81
2023-04-09T18:37:40.743Z,101327.13
2023-04-09T18:40:11.069Z,101331.75
2023-04-09T18:42:37.412Z,101346.25
2023-04-09T18:45:05.888Z,101338.25
2023-04-09T18:47:32.659Z,101351.13
2023-04-09T18:49:59.162Z,101346.84
2023-04-09T18:52:25.606Z,101337.19
2023-04-09T18:54:52.053Z,101338.22
2023-04-09T18:57:18.992Z,101340.25
2023-04-09T18:59:46.551Z,101323.44
2023-04-09T19:02:14.374Z,101343.03
2023-04-09T19:04:40.976Z,101345.75
2023-04-09T19:07:07.891Z,101351.16
2023-04-09T19:09:34.534Z,101352.16
2023-04-09T19:12:00.989Z,101353.13
2023-04-09T19:14:27.603Z,101353.25
2023-04-09T19:16:53.975Z,101348.75
2023-04-09T19:19:21.683Z,101347.00
2023-04-09T19:21:48.135Z,101345.28
2023-04-09T19:24:14.573Z,101349.81
2023-04-09T19:26:41.057Z,101344.34
2023-04-09T19:29:07.747Z,101351.66
2023-04-09T19:31:34.238Z,101339.16
2023-04-09T19:34:00.693Z,101350.16
2023-04-09T19:36:28.478Z,101359.38
2023-04-09T19:38:55.059Z,101355.97
2023-04-09T19:41:21.587Z,101352.56
2023-04-09T19:43:47.969Z,101344.50
2023-04-09T19:46:14.444Z,101341.88
2023-04-09T19:48:40.870Z,101345.56
2023-04-09T19:51:07.319Z,101341.25
2023-04-09T19:53:35.090Z,101346.69
2023-04-09T19:56:01.592Z,101345.94
2023-04-09T19:58:28.036Z,101350.59
2023-04-09T20:00:54.508Z,101357.00
2023-04-09T20:03:21.175Z,101358.91
2023-04-09T20:05:47.747Z,101367.09
2023-04-09T20:08:15.949Z,101365.38
2023-04-09T20:10:43.913Z,101363.63
2023-04-09T20:13:10.342Z,101367.31
2023-04-09T20:15:36.752Z,101366.44
2023-04-09T20:18:03.324Z,101366.59
2023-04-09T20:20:29.704Z,101379.22
2023-04-09T20:22:56.776Z,101380.19
2023-04-09T20:25:23.491Z,101385.66
2023-04-09T20:27:53.142Z,101384.78
2023-04-09T20:30:19.671Z,101385.75
2023-04-09T20:32:46.192Z,101380.41
2023-04-09T20:35:12.757Z,101378.72
2023-04-09T20:37:39.196Z,101384.16
2023-04-09T20:40:06.903Z,101376.09
2023-04-09T20:42:33.363Z,101382.44
2023-04-09T20:45:01.980Z,101385.19
2023-04-09T20:47:28.673Z,101378.94
2023-04-09T20:49:55.209Z,101378.97
2023-04-09T20:52:21.650Z,101376.31
2023-04-09T20:54:48.123Z,101373.66
2023-04-09T20:57:14.539Z,101375.50
2023-04-09T20:59:41.156Z,101371.09
2023-04-09T21:02:09.010Z,101371.13
2023-04-09T21:04:35.549Z,101374.75
2023-04-09T21:07:02.105Z,101376.56
2023-04-09T21:09:28.614Z,101376.66
2023-04-09T21:11:55.509Z,101372.19
2023-04-09T21:14:21.943Z,101369.47
2023-04-09T21:16:48.346Z,101366.81
2023-04-09T21:19:16.120Z,101365.06
2023-04-09T21:21:42.523Z,101367.72
2023-04-09T21:24:10.474Z,101372.28
2023-04-09T21:26:49.900Z,101363.28
2023-04-09T21:29:18.580Z,101362.41
2023-04-09T21:31:44.988Z,101360.63
2023-04-09T21:34:11.404Z,101360.66
2023-04-09T21:36:39.363Z,101356.19
2023-04-09T21:39:06.042Z,101353.53
2023-04-09T21:41:32.460Z,101357.16
2023-04-09T21:44:01.852Z,101361.63
2023-04-09T21:46:28.415Z,101352.69
2023-04-09T21:48:55.044Z,101357.19
2023-04-09T21:51:21.667Z,101358.06
2023-04-09T21:53:49.443Z,101356.31
2023-04-09T21:56:15.977Z,101358.16
2023-04-09T21:58:42.416Z,101358.16
2023-04-09T22:01:15.632Z,101366.28
2023-04-09T22:03:45.438Z,101355.53
2023-04-09T22:06:11.837Z,101367.19
2023-04-09T22:08:46.042Z,101360.03
2023-04-09T22:11:25.789Z,101368.13
2023-04-09T22:13:54.066Z,101369.03
2023-04-09T22:16:20.570Z,101352.00
2023-04-09T22:18:47.051Z,101370.84
2023-04-09T22:21:14.425Z,101362.78
2023-04-09T22:23:40.966Z,101361.00
2023-04-09T22:26:07.552Z,101360.09
2023-04-09T22:28:35.326Z,101361.88
2023-04-09T22:31:01.804Z,101354.69
2023-04-09T22:33:28.399Z,101366.31
2023-04-09T22:35:54.949Z,101366.34
2023-04-09T22:38:21.911Z,101368.16
2023-04-09T22:40:48.692Z,101351.16
2023-04-09T22:43:15.826Z,101365.47
2023-04-09T22:45:49.693Z,101361.88
2023-04-09T22:48:16.135Z,101374.44
2023-04-09T22:50:42.548Z,101362.81
2023-04-09T22:53:08.947Z,101368.16
2023-04-09T22:55:35.370Z,101380.75
2023-04-09T22:58:01.767Z,101373.56
2023-04-09T23:00:28.154Z,101377.16
2023-04-09T23:02:56.215Z,101382.53
2023-04-09T23:05:23.050Z,101382.53
2023-04-09T23:07:49.387Z,101378.97
2023-04-09T23:10:15.796Z,101380.75
2023-04-09T23:12:42.186Z,101383.44
2023-04-09T23:15:09.384Z,101378.06
2023-04-09T23:17:35.903Z,101370.00
2023-04-09T23:20:04.189Z,101374.50
2023-04-09T23:22:30.563Z,101380.75
2023-04-09T23:24:56.917Z,101373.56
2023-04-09T23:27:23.354Z,101371.78
2023-04-09T23:29:49.792Z,101375.38
2023-04-09T23:32:16.186Z,101370.88
2023-04-09T23:34:42.668Z,101377.16
2023-04-09T23:37:10.435Z,101374.47
2023-04-09T23:39:36.796Z,101370.88
2023-04-09T23:42:03.446Z,101374.44
2023-04-09T23:44:29.846Z,101372.63
2023-04-09T23:46:56.274Z,101380.72
2023-04-09T23:49:22.771Z,101376.22
2023-04-09T23:51:50.759Z,101373.56
2023-04-09T23:54:18.461Z,101362.75
2023-04-09T23:56:44.832Z,101369.97
2023-04-09T23:59:11.236Z,101370.91
